Time;durP1;ratioP1;P1;durP2;ratioP2;P2;SDS_P1;SDS_P2;PMS_P1;PMS_P2;Temp;Humidity;BMP_temperature;BMP_pressure;BME280_temperature;BME280_humidity;BME280_pressure;Samples;Min_cycle;Max_cycle;Signal;HPM_P1;HPM_P2
2022/10/24 00:01:15;;;;;;;6.18;2.47;;;15.40;99.90;;;;;;5074489;28;20105;-83
2022/10/24 00:03:42;;;;;;;12.02;2.80;;;15.40;99.90;;;;;;5074430;28;20044;-83
2022/10/24 00:06:09;;;;;;;4.95;2.22;;;15.40;99.90;;;;;;5074725;28;20051;-85
2022/10/24 00:08:36;;;;;;;9.40;2.42;;;15.40;99.90;;;;;;5074187;28;20445;-85
2022/10/24 00:11:06;;;;;;;8.10;2.47;;;15.50;99.90;;;;;;5057668;28;20477;-84
2022/10/24 00:13:33;;;;;;;11.60;2.33;;;15.40;99.90;;;;;;5074798;28;20021;-83
2022/10/24 00:15:59;;;;;;;9.85;2.20;;;15.40;99.90;;;;;;5074069;28;20132;-84
2022/10/24 00:18:24;;;;;;;9.43;2.50;;;15.40;99.90;;;;;;5074255;28;20021;-85
2022/10/24 00:20:50;;;;;;;7.07;2.55;;;15.40;99.90;;;;;;5074213;28;20017;-84
2022/10/24 00:23:16;;;;;;;9.68;2.85;;;15.40;99.90;;;;;;5074447;28;20016;-85
2022/10/24 00:25:41;;;;;;;10.88;2.78;;;15.50;99.90;;;;;;5057511;28;20032;-84
2022/10/24 00:28:07;;;;;;;7.65;2.25;;;15.40;99.90;;;;;;5057457;28;20071;-85
2022/10/24 00:30:33;;;;;;;10.30;1.90;;;15.50;99.90;;;;;;5057632;28;20028;-86
2022/10/24 00:33:01;;;;;;;9.75;2.30;;;15.50;99.90;;;;;;5057630;28;20044;-84
2022/10/24 00:35:27;;;;;;;8.25;2.08;;;15.50;99.90;;;;;;5075695;28;20037;-82
2022/10/24 00:37:53;;;;;;;7.40;2.33;;;15.50;99.90;;;;;;5075302;28;20027;-83
2022/10/24 00:40:19;;;;;;;9.13;1.90;;;15.50;99.90;;;;;;5059201;28;20028;-84
2022/10/24 00:42:46;;;;;;;6.93;2.33;;;15.50;99.90;;;;;;5058459;28;20101;-84
2022/10/24 00:45:38;;;;;;;6.43;2.20;;;15.50;99.90;;;;;;5077628;28;20051;-85
2022/10/24 00:48:15;;;;;;;7.65;2.30;;;15.50;99.90;;;;;;5078107;28;20021;-85
2022/10/24 00:50:42;;;;;;;8.55;1.80;;;15.60;99.90;;;;;;5075609;28;20084;-84
2022/10/24 00:53:08;;;;;;;7.13;1.40;;;15.60;99.90;;;;;;5057212;28;20032;-85
2022/10/24 00:55:34;;;;;;;9.27;1.83;;;15.60;99.90;;;;;;5073716;28;20029;-83
2022/10/24 00:58:01;;;;;;;7.45;1.50;;;15.70;99.90;;;;;;5073694;28;20028;-83
2022/10/24 01:00:33;;;;;;;9.57;2.20;;;15.60;99.90;;;;;;5074807;28;20078;-85
2022/10/24 01:02:59;;;;;;;9.18;2.00;;;15.70;99.90;;;;;;5073131;28;20067;-84
2022/10/24 01:05:36;;;;;;;6.82;2.10;;;15.70;99.90;;;;;;5073428;28;20031;-82
2022/10/24 01:08:04;;;;;;;8.05;1.95;;;15.70;99.90;;;;;;5072918;28;20040;-84
2022/10/24 01:11:04;;;;;;;8.13;1.83;;;15.80;99.90;;;;;;5073233;28;20056;-83
2022/10/24 01:13:48;;;;;;;6.95;1.67;;;15.80;99.90;;;;;;5073136;28;20032;-84
2022/10/24 01:16:27;;;;;;;7.88;1.75;;;15.80;99.90;;;;;;5072930;28;20045;-85
2022/10/24 01:18:59;;;;;;;9.95;1.63;;;15.80;99.90;;;;;;5073414;28;20021;-82
2022/10/24 01:21:40;;;;;;;11.52;1.70;;;15.80;99.90;;;;;;5072955;28;20090;-84
2022/10/24 01:24:11;;;;;;;6.68;1.42;;;15.90;99.90;;;;;;5072910;28;20013;-84
2022/10/24 01:27:08;;;;;;;7.70;1.77;;;15.90;99.90;;;;;;5073178;28;20025;-81
2022/10/24 01:29:59;;;;;;;7.07;1.60;;;15.90;99.90;;;;;;5074167;28;20024;-85
2022/10/24 01:32:46;;;;;;;6.72;1.55;;;15.90;99.90;;;;;;5073158;28;20048;-83
2022/10/24 01:35:34;;;;;;;5.45;1.40;;;16.00;99.90;;;;;;5074340;28;20035;-84
2022/10/24 01:38:34;;;;;;;5.70;1.38;;;16.00;99.90;;;;;;5073012;28;20031;-82
2022/10/24 01:41:11;;;;;;;7.32;1.38;;;16.00;99.90;;;;;;5031012;28;20039;-85
2022/10/24 01:43:52;;;;;;;4.40;1.35;;;16.00;99.90;;;;;;5072735;28;20108;-85
2022/10/24 01:46:23;;;;;;;10.23;2.33;;;16.00;99.90;;;;;;5072734;28;20078;-82
2022/10/24 01:48:56;;;;;;;7.25;2.88;;;16.00;99.90;;;;;;5073000;28;20088;-83
2022/10/24 01:51:25;;;;;;;4.93;1.50;;;16.00;99.90;;;;;;5072566;28;20046;-84
2022/10/24 01:53:52;;;;;;;5.97;1.40;;;16.00;99.90;;;;;;5072593;28;20484;-86
2022/10/24 01:56:18;;;;;;;8.63;1.40;;;16.00;99.90;;;;;;5072680;28;20029;-84
2022/10/24 01:58:46;;;;;;;9.38;2.30;;;16.00;99.90;;;;;;5072665;28;20499;-85
2022/10/24 02:01:18;;;;;;;8.32;1.30;;;16.00;99.90;;;;;;5056073;28;20028;-84
2022/10/24 02:03:50;;;;;;;10.10;2.03;;;15.90;99.90;;;;;;5073843;28;20021;-87
2022/10/24 02:06:21;;;;;;;8.23;1.38;;;15.90;99.90;;;;;;5072524;28;20017;-85
2022/10/24 02:08:56;;;;;;;3.72;1.25;;;16.00;99.90;;;;;;5072211;28;20025;-84
2022/10/24 02:11:21;;;;;;;6.85;1.75;;;15.90;99.90;;;;;;5072603;28;20035;-88
2022/10/24 02:14:13;;;;;;;5.40;1.40;;;16.00;99.90;;;;;;5072426;28;20111;-84
2022/10/24 02:16:39;;;;;;;7.75;1.48;;;16.00;99.90;;;;;;5072172;28;20606;-86
2022/10/24 02:19:05;;;;;;;12.40;1.80;;;16.00;99.90;;;;;;5055964;28;20035;-82
2022/10/24 02:21:41;;;;;;;8.15;1.50;;;16.00;99.40;;;;;;5055980;28;20028;-83
2022/10/24 02:24:26;;;;;;;5.68;1.48;;;16.00;99.10;;;;;;5073411;28;20078;-84
2022/10/24 02:27:24;;;;;;;6.70;1.27;;;16.00;99.20;;;;;;5072053;28;20043;-87
2022/10/24 02:29:53;;;;;;;10.02;1.42;;;16.00;98.60;;;;;;5068260;28;20037;-86
2022/10/24 02:32:25;;;;;;;5.85;1.25;;;16.00;98.50;;;;;;5072170;28;20060;-85
2022/10/24 02:34:51;;;;;;;7.30;1.80;;;16.00;98.80;;;;;;5071905;28;20028;-83
2022/10/24 02:37:17;;;;;;;4.38;1.33;;;16.00;98.10;;;;;;5055524;28;20078;-83
2022/10/24 02:39:46;;;;;;;7.03;1.40;;;16.00;97.60;;;;;;5055758;28;20020;-85
2022/10/24 02:42:15;;;;;;;6.65;1.23;;;16.10;97.20;;;;;;5055350;28;20036;-85
2022/10/24 02:44:42;;;;;;;9.05;1.10;;;16.10;96.90;;;;;;5072105;28;20085;-86
2022/10/24 02:47:14;;;;;;;5.75;1.35;;;16.10;96.70;;;;;;5072386;28;20020;-85
2022/10/24 02:49:40;;;;;;;6.25;1.40;;;16.10;96.50;;;;;;5072035;28;20116;-86
2022/10/24 02:52:06;;;;;;;3.58;0.93;;;16.20;96.20;;;;;;5055303;28;20060;-82
2022/10/24 02:54:32;;;;;;;4.65;1.10;;;16.10;96.30;;;;;;5055446;28;20028;-87
2022/10/24 02:57:01;;;;;;;4.38;1.30;;;16.10;96.20;;;;;;5055213;28;20388;-83
2022/10/24 02:59:27;;;;;;;4.25;0.98;;;16.10;96.10;;;;;;5073215;28;20516;-81
2022/10/24 03:01:53;;;;;;;4.95;1.58;;;16.10;95.80;;;;;;5071660;28;20117;-86
2022/10/24 03:04:19;;;;;;;8.25;1.55;;;16.10;95.80;;;;;;5071644;28;20048;-82
2022/10/24 03:06:44;;;;;;;8.70;1.30;;;16.10;95.50;;;;;;5054918;28;20468;-82
2022/10/24 03:09:10;;;;;;;4.10;0.75;;;16.10;95.30;;;;;;5054896;28;20037;-82
2022/10/24 03:11:38;;;;;;;4.55;1.02;;;16.10;95.50;;;;;;5054848;28;20043;-84
2022/10/24 03:14:05;;;;;;;6.00;1.25;;;16.10;95.00;;;;;;5055355;28;20043;-84
2022/10/24 03:16:30;;;;;;;4.22;0.80;;;16.10;95.00;;;;;;5071518;28;20534;-82
2022/10/24 03:18:56;;;;;;;5.65;1.13;;;16.10;94.60;;;;;;5054880;28;20029;-85
2022/10/24 03:21:22;;;;;;;6.03;1.17;;;16.10;94.60;;;;;;5057179;28;20029;-82
2022/10/24 03:23:50;;;;;;;7.53;1.10;;;16.00;94.40;;;;;;5075081;28;20114;-82
2022/10/24 03:26:16;;;;;;;2.53;1.02;;;16.00;94.10;;;;;;5058814;28;20059;-83
2022/10/24 03:28:41;;;;;;;5.45;1.00;;;16.00;94.00;;;;;;5075939;28;20040;-81
2022/10/24 03:31:07;;;;;;;6.07;0.90;;;16.10;94.00;;;;;;5075165;28;20124;-84
2022/10/24 03:33:33;;;;;;;7.57;1.00;;;16.10;93.90;;;;;;5058607;28;20127;-82
2022/10/24 03:36:01;;;;;;;5.07;0.73;;;16.10;93.80;;;;;;5075151;28;20123;-83
2022/10/24 03:38:27;;;;;;;5.32;0.77;;;16.10;93.70;;;;;;5075397;28;20029;-84
2022/10/24 03:40:53;;;;;;;3.40;0.80;;;16.10;93.70;;;;;;5075183;28;20124;-83
2022/10/24 03:43:18;;;;;;;4.95;0.93;;;16.10;93.30;;;;;;5074805;28;20021;-83
2022/10/24 03:45:49;;;;;;;5.22;1.10;;;16.10;92.90;;;;;;5058416;28;20032;-82
2022/10/24 03:48:15;;;;;;;5.70;0.82;;;16.10;92.70;;;;;;5074758;28;20121;-82
2022/10/24 03:50:41;;;;;;;3.88;0.75;;;16.10;92.60;;;;;;5076105;28;20021;-82
2022/10/24 03:53:06;;;;;;;8.18;1.15;;;16.10;92.50;;;;;;5058638;28;20119;-89
2022/10/24 03:55:32;;;;;;;3.08;0.82;;;16.10;92.40;;;;;;5074540;28;20031;-81
2022/10/24 03:57:58;;;;;;;6.55;0.70;;;16.10;92.60;;;;;;5074680;28;20032;-87
2022/10/24 04:00:28;;;;;;;7.90;1.00;;;16.10;92.50;;;;;;5074564;28;20048;-87
2022/10/24 04:02:54;;;;;;;4.88;0.90;;;16.10;92.30;;;;;;5057850;28;20033;-83
2022/10/24 04:05:20;;;;;;;2.13;0.50;;;16.10;92.20;;;;;;5074617;28;20024;-87
2022/10/24 04:07:53;;;;;;;4.20;0.82;;;16.10;91.90;;;;;;5057858;28;20071;-84
2022/10/24 04:10:19;;;;;;;2.63;0.65;;;16.20;92.10;;;;;;5058102;28;20393;-85
2022/10/24 04:12:45;;;;;;;5.13;1.15;;;16.20;91.90;;;;;;5075454;28;20032;-81
2022/10/24 04:15:13;;;;;;;5.10;1.00;;;16.20;92.10;;;;;;5069174;28;20064;-83
2022/10/24 04:17:39;;;;;;;3.00;0.95;;;16.20;92.00;;;;;;5070344;28;20059;-81
2022/10/24 04:20:05;;;;;;;6.70;0.50;;;16.20;92.20;;;;;;5077009;28;20052;-84
2022/10/24 04:22:31;;;;;;;7.03;1.15;;;16.10;92.10;;;;;;5074074;28;20107;-82
2022/10/24 04:24:57;;;;;;;7.28;0.60;;;16.10;92.10;;;;;;5073962;28;20476;-84
2022/10/24 04:27:28;;;;;;;3.15;0.80;;;16.10;92.30;;;;;;5074401;28;20055;-86
2022/10/24 04:29:54;;;;;;;5.63;0.90;;;16.10;92.20;;;;;;5074135;28;20044;-84
2022/10/24 04:32:20;;;;;;;7.03;0.68;;;16.00;92.50;;;;;;5074464;28;20057;-85
2022/10/24 04:34:48;;;;;;;3.42;0.70;;;16.00;92.30;;;;;;5074008;28;20040;-85
2022/10/24 04:37:17;;;;;;;3.58;0.85;;;16.00;92.40;;;;;;5073860;28;20024;-85
2022/10/24 04:39:43;;;;;;;3.70;0.60;;;15.90;92.50;;;;;;5075334;28;20021;-84
2022/10/24 04:42:09;;;;;;;6.47;0.80;;;15.90;92.60;;;;;;5074242;28;20036;-85
2022/10/24 04:44:34;;;;;;;6.85;0.90;;;15.90;92.60;;;;;;5075464;28;20020;-85
2022/10/24 04:47:00;;;;;;;6.47;0.82;;;15.90;92.70;;;;;;5073826;28;20141;-83
2022/10/24 04:49:26;;;;;;;5.38;0.73;;;15.80;92.70;;;;;;5074709;28;20021;-83
2022/10/24 04:51:52;;;;;;;5.00;1.05;;;15.70;92.60;;;;;;5073999;28;20032;-84
2022/10/24 04:54:17;;;;;;;5.63;0.70;;;15.80;92.60;;;;;;5056810;28;20503;-84
2022/10/24 04:56:43;;;;;;;5.30;1.02;;;15.80;92.70;;;;;;5057137;28;20024;-85
2022/10/24 04:59:08;;;;;;;4.32;0.90;;;15.80;92.70;;;;;;5056967;28;20503;-82
2022/10/24 05:01:34;;;;;;;4.75;0.68;;;15.80;92.70;;;;;;5073812;28;20023;-83
2022/10/24 05:04:00;;;;;;;5.90;0.90;;;15.80;92.70;;;;;;5056534;28;20025;-84
2022/10/24 05:06:26;;;;;;;5.50;0.63;;;15.80;92.70;;;;;;5073265;28;20056;-83
2022/10/24 05:08:54;;;;;;;3.13;0.70;;;15.80;92.70;;;;;;5056426;28;20046;-84
2022/10/24 05:11:19;;;;;;;3.92;0.90;;;15.80;92.70;;;;;;5073345;28;20039;-83
2022/10/24 05:13:45;;;;;;;6.72;1.08;;;15.80;92.80;;;;;;5073230;28;20028;-83
2022/10/24 05:16:11;;;;;;;3.17;0.70;;;15.80;92.80;;;;;;5072973;28;20074;-84
2022/10/24 05:18:36;;;;;;;11.63;1.20;;;15.80;92.80;;;;;;5073393;28;20021;-84
2022/10/24 05:21:02;;;;;;;6.45;1.08;;;15.80;92.70;;;;;;5056425;28;20392;-88
2022/10/24 05:23:28;;;;;;;5.32;0.80;;;15.80;92.70;;;;;;5056384;28;20119;-85
2022/10/24 05:25:53;;;;;;;4.25;0.95;;;15.80;92.70;;;;;;5073085;28;20028;-83
2022/10/24 05:28:26;;;;;;;5.40;0.95;;;15.80;92.90;;;;;;5073498;28;20479;-87
2022/10/24 05:30:52;;;;;;;5.53;0.88;;;15.90;92.70;;;;;;5072972;28;20024;-84
2022/10/24 05:33:18;;;;;;;6.88;1.00;;;15.90;92.50;;;;;;5056280;28;20504;-84
2022/10/24 05:35:43;;;;;;;4.60;0.75;;;15.90;92.50;;;;;;5072633;28;20021;-83
2022/10/24 05:38:12;;;;;;;8.05;0.80;;;15.90;92.40;;;;;;5073166;28;20039;-86
2022/10/24 05:40:40;;;;;;;5.72;0.90;;;15.90;92.30;;;;;;5073226;28;20086;-82
2022/10/24 05:43:05;;;;;;;6.75;1.00;;;15.90;92.20;;;;;;5072490;28;20074;-81
2022/10/24 05:45:33;;;;;;;6.22;1.13;;;15.90;92.10;;;;;;5056463;28;20037;-84
2022/10/24 05:47:59;;;;;;;7.05;0.63;;;15.90;92.30;;;;;;5063069;28;20081;-83
2022/10/24 05:50:25;;;;;;;3.95;0.50;;;15.90;92.30;;;;;;5056327;28;20028;-82
2022/10/24 05:52:52;;;;;;;5.43;0.60;;;15.90;92.30;;;;;;5056302;28;20468;-83
2022/10/24 05:55:18;;;;;;;8.57;1.15;;;15.90;92.40;;;;;;5073519;28;20527;-85
2022/10/24 05:57:44;;;;;;;5.53;0.80;;;15.90;92.30;;;;;;5093009;28;20126;-84
2022/10/24 06:00:13;;;;;;;6.32;0.77;;;15.90;92.30;;;;;;5093938;28;20377;-82
2022/10/24 06:02:40;;;;;;;4.45;0.68;;;15.90;92.30;;;;;;5092935;28;20016;-83
2022/10/24 06:05:07;;;;;;;3.90;0.57;;;15.90;92.10;;;;;;5092341;28;20028;-83
2022/10/24 06:07:34;;;;;;;4.82;0.80;;;15.90;92.30;;;;;;5075655;28;20119;-84
2022/10/24 06:10:01;;;;;;;5.65;0.70;;;15.90;92.20;;;;;;5075804;28;20035;-83
2022/10/24 06:12:26;;;;;;;9.35;0.77;;;15.90;92.30;;;;;;5092348;28;20027;-83
2022/10/24 06:14:59;;;;;;;5.90;0.88;;;15.90;92.40;;;;;;5092412;28;20039;-85
2022/10/24 06:17:25;;;;;;;8.05;0.88;;;15.90;92.40;;;;;;5092345;28;20102;-81
2022/10/24 06:19:51;;;;;;;4.20;0.75;;;15.80;92.40;;;;;;5076168;28;20115;-84
2022/10/24 06:22:18;;;;;;;8.50;0.90;;;15.80;92.40;;;;;;5076572;28;20077;-84
2022/10/24 06:24:44;;;;;;;8.70;1.67;;;15.80;92.50;;;;;;5092076;28;20020;-85
2022/10/24 06:27:09;;;;;;;6.25;0.80;;;15.80;92.50;;;;;;5073576;28;20052;-85
2022/10/24 06:29:38;;;;;;;5.80;1.00;;;15.80;92.60;;;;;;5072507;28;20063;-84
2022/10/24 06:32:04;;;;;;;5.75;0.77;;;15.80;92.60;;;;;;5064859;28;20042;-84
2022/10/24 06:34:30;;;;;;;7.43;1.00;;;15.80;92.60;;;;;;5075669;28;20471;-85
2022/10/24 06:36:56;;;;;;;6.03;1.02;;;16.00;92.70;;;;;;5075302;28;20038;-87
2022/10/24 06:39:21;;;;;;;4.57;0.70;;;15.90;92.70;;;;;;5092327;28;20016;-84
2022/10/24 06:41:47;;;;;;;9.63;1.15;;;15.90;92.70;;;;;;5092124;28;20025;-85
2022/10/24 06:44:13;;;;;;;8.80;1.20;;;15.90;92.70;;;;;;5092576;28;20016;-84
2022/10/24 06:46:42;;;;;;;8.07;1.23;;;15.90;92.70;;;;;;5092282;28;20024;-85
2022/10/24 06:49:08;;;;;;;4.50;0.85;;;15.80;92.70;;;;;;5075412;28;20024;-83
2022/10/24 06:51:34;;;;;;;6.65;0.80;;;15.90;92.70;;;;;;5092527;28;20028;-86
2022/10/24 06:54:02;;;;;;;7.80;0.80;;;15.90;92.60;;;;;;5092736;28;20024;-85
2022/10/24 06:56:31;;;;;;;5.50;0.82;;;15.90;92.60;;;;;;5096567;28;20080;-86
2022/10/24 06:58:59;;;;;;;12.15;1.35;;;15.90;92.70;;;;;;5097031;28;20023;-84
2022/10/24 07:01:28;;;;;;;8.57;0.85;;;15.90;92.70;;;;;;5079818;28;20555;-85
2022/10/24 07:03:54;;;;;;;7.65;1.25;;;15.90;92.70;;;;;;5096203;28;20074;-85
2022/10/24 07:06:26;;;;;;;5.18;0.90;;;15.90;92.80;;;;;;5096029;28;20023;-84
2022/10/24 07:08:53;;;;;;;5.80;1.15;;;16.00;92.80;;;;;;5094064;28;20025;-86
2022/10/24 07:11:20;;;;;;;6.80;1.38;;;16.00;92.80;;;;;;5066872;28;20024;-86
2022/10/24 07:13:45;;;;;;;5.72;0.70;;;16.00;92.80;;;;;;5095899;28;20020;-86
2022/10/24 07:16:11;;;;;;;7.20;0.93;;;16.10;92.60;;;;;;5078822;28;20051;-84
2022/10/24 07:18:37;;;;;;;9.77;0.80;;;16.10;92.60;;;;;;5096301;28;20020;-85
2022/10/24 07:21:13;;;;;;;10.68;1.00;;;16.10;92.50;;;;;;5095890;28;20027;-84
2022/10/24 07:23:38;;;;;;;7.55;1.10;;;16.20;92.50;;;;;;5095864;28;20115;-88
2022/10/24 07:26:07;;;;;;;8.65;1.20;;;16.20;92.50;;;;;;5079225;28;20052;-84
2022/10/24 07:28:35;;;;;;;7.85;1.23;;;16.20;92.40;;;;;;5095862;28;20089;-85
2022/10/24 07:31:01;;;;;;;5.22;1.25;;;16.30;92.40;;;;;;5095663;28;20115;-88
2022/10/24 07:33:30;;;;;;;9.82;0.88;;;16.30;92.40;;;;;;5095498;28;20024;-86
2022/10/24 07:35:59;;;;;;;3.95;0.77;;;16.20;92.30;;;;;;5095690;28;20022;-87
2022/10/24 07:38:24;;;;;;;10.75;1.02;;;16.40;92.40;;;;;;5095554;28;20017;-85
2022/10/24 07:40:50;;;;;;;10.55;1.35;;;16.30;92.40;;;;;;5095483;28;20468;-85
2022/10/24 07:43:17;;;;;;;7.15;1.00;;;16.30;92.40;;;;;;5095658;28;20368;-85
2022/10/24 07:45:43;;;;;;;7.60;0.90;;;16.30;92.40;;;;;;5095883;28;20101;-87
2022/10/24 07:48:09;;;;;;;9.98;1.30;;;16.30;92.40;;;;;;5096952;28;20030;-89
2022/10/24 07:50:43;;;;;;;7.80;1.00;;;16.40;92.30;;;;;;5095781;28;20107;-85
2022/10/24 07:53:12;;;;;;;9.02;1.13;;;16.40;92.40;;;;;;5095483;28;20073;-86
2022/10/24 07:55:42;;;;;;;7.75;0.82;;;16.40;92.40;;;;;;5095505;28;20032;-83
2022/10/24 07:58:18;;;;;;;6.90;0.82;;;16.40;92.20;;;;;;5095399;28;20054;-87
2022/10/24 08:00:44;;;;;;;9.38;1.45;;;16.50;92.30;;;;;;5095025;28;20381;-87
2022/10/24 08:03:09;;;;;;;9.93;1.40;;;16.50;92.20;;;;;;5095670;28;20020;-88
2022/10/24 08:05:40;;;;;;;13.05;1.42;;;16.50;92.00;;;;;;5095130;28;20488;-85
2022/10/24 08:08:06;;;;;;;9.07;1.20;;;16.60;92.00;;;;;;5094744;28;20035;-86
2022/10/24 08:10:33;;;;;;;9.60;1.17;;;16.50;91.90;;;;;;5078017;28;20036;-88
2022/10/24 08:12:58;;;;;;;8.45;1.10;;;16.60;92.10;;;;;;5094851;28;20024;-85
2022/10/24 08:15:27;;;;;;;9.32;0.90;;;16.60;92.00;;;;;;5094566;28;20048;-88
2022/10/24 08:17:53;;;;;;;5.10;0.73;;;16.60;91.90;;;;;;5093632;28;20024;-87
2022/10/24 08:20:20;;;;;;;8.52;1.10;;;16.60;92.00;;;;;;5094907;28;20109;-87
2022/10/24 08:22:49;;;;;;;8.13;1.40;;;16.70;92.10;;;;;;5094295;28;20017;-91
2022/10/24 08:25:14;;;;;;;14.25;1.30;;;16.70;92.00;;;;;;5094996;28;20024;-85
2022/10/24 08:27:41;;;;;;;8.32;1.48;;;16.70;91.80;;;;;;5095172;28;20028;-87
2022/10/24 08:30:07;;;;;;;8.65;0.95;;;16.80;91.30;;;;;;5094999;28;20028;-86
2022/10/24 08:32:34;;;;;;;5.57;0.90;;;16.70;90.90;;;;;;5095065;28;20100;-86
2022/10/24 08:35:02;;;;;;;8.43;1.00;;;16.80;90.60;;;;;;5094833;28;20123;-86
2022/10/24 08:37:27;;;;;;;6.00;0.77;;;16.80;90.50;;;;;;5094600;28;20016;-86
2022/10/24 08:39:54;;;;;;;5.93;0.82;;;16.80;90.60;;;;;;5096108;28;20095;-84
2022/10/24 08:42:26;;;;;;;7.38;0.93;;;16.80;90.70;;;;;;5085379;28;20062;-87
2022/10/24 08:44:52;;;;;;;9.15;0.98;;;16.80;90.90;;;;;;5074156;28;20031;-88
2022/10/24 08:47:39;;;;;;;8.00;1.17;;;16.80;91.10;;;;;;5074477;28;20115;-86
2022/10/24 08:50:19;;;;;;;13.20;2.03;;;16.80;91.10;;;;;;5090403;28;20017;-87
2022/10/24 08:53:02;;;;;;;8.50;0.80;;;16.90;90.90;;;;;;5094624;28;20024;-85
2022/10/24 08:55:43;;;;;;;7.78;0.90;;;16.90;90.70;;;;;;5081578;28;20024;-86
2022/10/24 08:58:20;;;;;;;5.78;0.93;;;16.90;90.50;;;;;;5074923;28;20017;-88
2022/10/24 09:00:51;;;;;;;6.10;1.08;;;17.00;90.50;;;;;;5092791;28;20035;-85
2022/10/24 09:03:25;;;;;;;5.88;0.70;;;17.10;90.30;;;;;;5096448;28;20024;-85
2022/10/24 09:05:56;;;;;;;9.23;1.02;;;17.20;90.30;;;;;;5100434;28;20032;-86
2022/10/24 09:08:43;;;;;;;6.50;1.20;;;17.30;89.70;;;;;;5099223;28;20028;-84
2022/10/24 09:11:34;;;;;;;7.25;0.88;;;17.30;90.10;;;;;;5095856;28;20028;-87
2022/10/24 09:14:06;;;;;;;8.85;0.75;;;17.40;90.10;;;;;;5076904;28;20032;-86
2022/10/24 09:16:31;;;;;;;7.93;1.13;;;17.50;89.80;;;;;;5094254;28;20028;-85
2022/10/24 09:18:58;;;;;;;7.82;0.50;;;17.50;89.30;;;;;;5092805;28;20085;-86
2022/10/24 09:21:25;;;;;;;3.63;0.50;;;17.50;88.60;;;;;;5070770;28;20111;-87
2022/10/24 09:23:51;;;;;;;7.13;0.85;;;17.50;88.30;;;;;;5077192;28;20021;-86
2022/10/24 09:26:31;;;;;;;7.00;0.80;;;17.60;88.10;;;;;;5080429;28;20112;-85
2022/10/24 09:29:02;;;;;;;6.15;0.82;;;17.60;87.90;;;;;;5073813;28;20037;-86
2022/10/24 09:31:30;;;;;;;2.90;0.38;;;17.70;87.80;;;;;;5073068;28;20021;-86
2022/10/24 09:33:59;;;;;;;8.85;0.70;;;17.80;88.20;;;;;;5056693;28;20119;-84
2022/10/24 09:36:29;;;;;;;8.52;0.68;;;18.00;86.80;;;;;;5056973;28;20044;-85
2022/10/24 09:38:55;;;;;;;5.30;0.90;;;18.30;86.90;;;;;;5072910;28;20021;-86
2022/10/24 09:41:25;;;;;;;6.47;0.90;;;18.70;88.00;;;;;;5073941;28;20036;-87
2022/10/24 09:43:55;;;;;;;5.93;0.68;;;19.10;84.50;;;;;;5072922;28;20041;-87
2022/10/24 09:46:40;;;;;;;5.95;0.60;;;19.50;83.50;;;;;;5073034;28;20032;-86
2022/10/24 09:49:12;;;;;;;2.40;0.50;;;19.90;83.50;;;;;;5073670;28;20115;-84
2022/10/24 09:51:44;;;;;;;5.70;0.60;;;20.50;83.60;;;;;;5072525;28;20554;-86
2022/10/24 09:54:19;;;;;;;6.07;0.80;;;21.10;80.60;;;;;;5072907;28;20514;-84
2022/10/24 09:56:57;;;;;;;3.17;0.45;;;21.40;77.50;;;;;;5073758;28;20025;-84
2022/10/24 09:59:48;;;;;;;5.68;1.00;;;21.30;76.10;;;;;;5073794;28;20032;-85
2022/10/24 10:02:18;;;;;;;3.55;0.70;;;21.00;72.40;;;;;;5073524;28;20023;-87
2022/10/24 10:04:46;;;;;;;5.60;0.80;;;20.70;72.60;;;;;;5073073;28;20534;-85
2022/10/24 10:07:15;;;;;;;5.85;0.75;;;20.30;73.00;;;;;;5073564;28;20021;-86
2022/10/24 10:09:53;;;;;;;4.90;0.60;;;20.00;73.80;;;;;;5072938;28;20021;-85
2022/10/24 10:12:31;;;;;;;7.60;0.85;;;19.80;74.50;;;;;;5072710;28;20040;-86
2022/10/24 10:14:58;;;;;;;6.68;0.55;;;19.70;74.40;;;;;;5071789;28;20055;-83
2022/10/24 10:17:26;;;;;;;4.75;0.70;;;19.50;75.00;;;;;;5072160;28;20154;-88
2022/10/24 10:19:54;;;;;;;4.30;0.70;;;19.50;75.70;;;;;;5072384;28;20016;-86
2022/10/24 10:22:34;;;;;;;5.60;0.80;;;19.50;75.60;;;;;;5074004;28;20024;-86
2022/10/24 10:25:00;;;;;;;4.82;0.60;;;19.60;75.80;;;;;;5072722;28;20404;-84
2022/10/24 10:27:33;;;;;;;6.28;0.73;;;19.70;76.10;;;;;;5072581;28;20021;-88
2022/10/24 10:30:10;;;;;;;4.63;0.90;;;19.70;75.20;;;;;;5071833;28;20040;-84
2022/10/24 10:33:14;;;;;;;3.22;0.50;;;19.50;75.10;;;;;;5072308;28;20035;-86
2022/10/24 10:35:46;;;;;;;6.82;0.93;;;19.50;75.40;;;;;;5049442;28;20469;-87
2022/10/24 10:38:30;;;;;;;4.50;0.60;;;19.40;76.10;;;;;;5072143;28;20112;-86
2022/10/24 10:41:33;;;;;;;4.65;0.70;;;19.50;76.20;;;;;;5072493;28;20543;-87
2022/10/24 10:44:20;;;;;;;7.55;0.70;;;19.50;75.20;;;;;;5072057;28;20029;-87
2022/10/24 10:47:10;;;;;;;10.23;0.68;;;19.50;75.70;;;;;;5072957;28;20028;-87
2022/10/24 10:49:38;;;;;;;4.63;0.57;;;19.50;75.30;;;;;;5072293;28;20032;-87
2022/10/24 10:52:23;;;;;;;6.57;0.75;;;19.50;75.80;;;;;;5071907;28;20028;-87
2022/10/24 10:54:48;;;;;;;;;;;19.70;75.00;;;;;;5072531;28;20033;-88
2022/10/24 10:57:18;;;;;;;2.95;0.85;;;19.80;74.40;;;;;;5072729;28;19908;-86
2022/10/24 11:00:11;;;;;;;4.75;0.65;;;19.80;73.70;;;;;;5071984;28;20024;-83
2022/10/24 11:03:15;;;;;;;5.28;0.52;;;19.70;73.10;;;;;;5073567;28;20024;-84
2022/10/24 11:06:11;;;;;;;5.30;0.57;;;19.60;72.20;;;;;;5024761;28;20448;-88
2022/10/24 11:08:43;;;;;;;5.63;0.60;;;19.50;73.30;;;;;;5073653;28;20031;-86
2022/10/24 11:11:18;;;;;;;5.70;1.00;;;19.70;74.50;;;;;;5071965;28;20134;-87
2022/10/24 11:13:53;;;;;;;5.25;0.60;;;20.20;74.70;;;;;;5085952;28;20020;-85
2022/10/24 11:16:24;;;;;;;4.55;0.55;;;20.80;74.60;;;;;;5091780;28;20036;-86
2022/10/24 11:18:51;;;;;;;5.60;0.57;;;21.30;73.20;;;;;;5091919;28;20012;-86
2022/10/24 11:21:21;;;;;;;4.90;0.60;;;21.50;71.40;;;;;;5091576;28;20016;-83
2022/10/24 11:24:00;;;;;;;3.28;0.70;;;21.50;69.90;;;;;;5091747;28;20020;-80
2022/10/24 11:26:43;;;;;;;6.22;0.60;;;21.30;68.30;;;;;;5091215;28;20361;-84
2022/10/24 11:29:17;;;;;;;4.15;0.60;;;21.10;68.40;;;;;;5091847;28;20032;-84
2022/10/24 11:31:48;;;;;;;2.15;0.30;;;20.90;68.30;;;;;;5091269;28;20032;-83
2022/10/24 11:34:31;;;;;;;3.80;0.50;;;20.60;68.80;;;;;;5091379;28;20066;-81
2022/10/24 11:37:18;;;;;;;7.18;0.57;;;20.40;69.30;;;;;;5092891;28;20508;-81
2022/10/24 11:39:55;;;;;;;5.88;0.60;;;20.30;70.00;;;;;;5091430;28;20108;-82
2022/10/24 11:42:36;;;;;;;3.63;0.50;;;20.20;70.20;;;;;;5093584;28;20016;-82
2022/10/24 11:45:14;;;;;;;5.95;0.77;;;20.10;70.20;;;;;;5096438;28;20539;-83
2022/10/24 11:48:01;;;;;;;2.70;0.50;;;20.10;70.40;;;;;;5095025;28;20016;-83
2022/10/24 11:50:38;;;;;;;4.57;0.60;;;20.00;70.30;;;;;;5075720;28;20443;-82
2022/10/24 11:53:27;;;;;;;5.30;0.70;;;19.70;70.90;;;;;;5075861;28;20024;-84
2022/10/24 11:56:07;;;;;;;5.07;0.68;;;19.40;71.90;;;;;;5074307;28;20523;-80
2022/10/24 11:58:37;;;;;;;3.72;0.60;;;19.20;73.00;;;;;;5074809;28;20086;-83
2022/10/24 12:01:19;;;;;;;4.55;0.50;;;19.10;74.20;;;;;;5074939;28;20021;-83
2022/10/24 12:04:20;;;;;;;1.45;0.30;;;19.20;75.20;;;;;;5074773;28;20170;-83
2022/10/24 12:07:01;;;;;;;6.03;0.50;;;19.60;74.70;;;;;;5074236;28;20029;-84
2022/10/24 12:09:52;;;;;;;4.65;0.60;;;19.80;73.90;;;;;;5074711;28;20024;-83
2022/10/24 12:12:46;;;;;;;2.92;0.50;;;20.00;73.30;;;;;;5074339;28;20491;-83
2022/10/24 12:15:26;;;;;;;3.90;0.55;;;20.10;72.90;;;;;;5093342;28;20048;-85
2022/10/24 12:18:07;;;;;;;3.58;0.60;;;20.10;72.80;;;;;;5094343;28;20081;-82
2022/10/24 12:20:33;;;;;;;5.65;0.70;;;20.10;72.50;;;;;;5094545;28;20418;-83
2022/10/24 12:23:01;;;;;;;4.03;0.50;;;20.00;72.40;;;;;;5077503;28;20083;-81
2022/10/24 12:25:34;;;;;;;3.83;0.50;;;20.00;72.40;;;;;;5094252;28;20031;-82
2022/10/24 12:28:24;;;;;;;4.20;0.43;;;19.90;72.50;;;;;;5095634;28;20091;-84
2022/10/24 12:31:14;;;;;;;7.22;0.52;;;19.80;72.80;;;;;;5094305;28;20024;-83
2022/10/24 12:33:41;;;;;;;5.72;0.68;;;19.80;72.80;;;;;;5094719;28;20103;-83
2022/10/24 12:36:07;;;;;;;3.75;0.60;;;20.00;73.50;;;;;;5095232;28;20046;-83
2022/10/24 12:38:32;;;;;;;4.15;0.45;;;20.20;73.40;;;;;;5077910;28;20032;-83
2022/10/24 12:41:29;;;;;;;5.22;0.70;;;20.20;72.80;;;;;;5093873;28;20024;-83
2022/10/24 12:44:22;;;;;;;6.95;0.95;;;20.10;72.80;;;;;;5072259;28;20036;-86
2022/10/24 12:46:52;;;;;;;7.43;0.57;;;19.90;73.00;;;;;;5073794;28;20024;-82
2022/10/24 12:49:28;;;;;;;4.72;0.68;;;19.70;73.70;;;;;;5087942;28;20035;-83
2022/10/24 12:51:55;;;;;;;7.93;0.60;;;19.60;74.30;;;;;;5093725;28;20047;-83
2022/10/24 12:54:57;;;;;;;6.72;0.70;;;19.50;74.80;;;;;;5094019;28;20035;-87
2022/10/24 12:57:36;;;;;;;7.20;0.82;;;19.40;76.40;;;;;;4996863;28;20426;-84
2022/10/24 13:00:20;;;;;;;5.05;0.70;;;19.50;76.50;;;;;;5082983;28;20035;-83
2022/10/24 13:02:51;;;;;;;;;;;19.90;77.90;;;;;;5094020;28;20027;-83
2022/10/24 13:05:38;;;;;;;7.28;0.90;;;20.30;75.80;;;;;;5093580;28;19951;-82
2022/10/24 13:08:25;;;;;;;5.97;0.80;;;20.50;75.40;;;;;;5093541;28;20118;-85
2022/10/24 13:11:00;;;;;;;7.00;0.60;;;20.90;74.40;;;;;;5093414;28;20077;-83